sensor_id;sensor_type;location;lat;lon;timestamp;pressure;altitude;pressure_sealevel;temperature;humidity
42887;BME280;29032;56.028;92.904;2023-03-23T00:04:39;100683.56;;;-8.88;37.03
42887;BME280;29032;56.028;92.904;2023-03-23T00:09:41;100681.25;;;-8.86;37.00
42887;BME280;29032;56.028;92.904;2023-03-23T00:15:06;100680.47;;;-8.90;37.15
42887;BME280;29032;56.028;92.904;2023-03-23T00:20:09;100673.09;;;-8.79;35.57
42887;BME280;29032;56.028;92.904;2023-03-23T00:25:11;100667.31;;;-8.92;37.06
42887;BME280;29032;56.028;92.904;2023-03-23T00:30:16;100667.69;;;-8.97;37.17
42887;BME280;29032;56.028;92.904;2023-03-23T00:52:42;100673.13;;;-9.04;37.44
42887;BME280;29032;56.028;92.904;2023-03-23T00:57:45;100665.03;;;-9.08;37.29
42887;BME280;29032;56.028;92.904;2023-03-23T01:02:48;100665.41;;;-9.06;37.45
42887;BME280;29032;56.028;92.904;2023-03-23T01:07:52;100666.56;;;-9.03;37.60
42887;BME280;29032;56.028;92.904;2023-03-23T01:12:54;100666.19;;;-9.01;37.70
42887;BME280;29032;56.028;92.904;2023-03-23T01:17:57;100661.53;;;-9.05;37.29
42887;BME280;29032;56.028;92.904;2023-03-23T01:23:20;100656.50;;;-9.06;37.44
42887;BME280;29032;56.028;92.904;2023-03-23T01:28:22;100660.72;;;-8.87;37.48
42887;BME280;29032;56.028;92.904;2023-03-23T01:33:24;100662.50;;;-8.49;37.49
42887;BME280;29032;56.028;92.904;2023-03-23T01:38:49;100662.78;;;-8.29;36.96
42887;BME280;29032;56.028;92.904;2023-03-23T01:43:56;100658.47;;;-8.19;36.99
42887;BME280;29032;56.028;92.904;2023-03-23T01:49:03;100647.59;;;-8.19;36.79
42887;BME280;29032;56.028;92.904;2023-03-23T01:54:09;100642.13;;;-8.12;36.62
42887;BME280;29032;56.028;92.904;2023-03-23T01:59:13;100636.69;;;-8.08;37.20
42887;BME280;29032;56.028;92.904;2023-03-23T02:04:20;100638.94;;;-8.00;36.83
42887;BME280;29032;56.028;92.904;2023-03-23T02:09:25;100632.69;;;-7.93;36.53
42887;BME280;29032;56.028;92.904;2023-03-23T02:14:46;100622.59;;;-7.89;36.00
42887;BME280;29032;56.028;92.904;2023-03-23T02:20:19;100620.94;;;-7.79;36.07
42887;BME280;29032;56.028;92.904;2023-03-23T02:25:48;100619.34;;;-7.73;35.67
42887;BME280;29032;56.028;92.904;2023-03-23T02:31:17;100608.78;;;-7.64;35.65
42887;BME280;29032;56.028;92.904;2023-03-23T02:36:29;100604.06;;;-7.56;35.48
42887;BME280;29032;56.028;92.904;2023-03-23T02:41:56;100593.16;;;-7.53;35.30
42887;BME280;29032;56.028;92.904;2023-03-23T02:47:00;100594.75;;;-7.18;35.24
42887;BME280;29032;56.028;92.904;2023-03-23T02:52:09;100583.09;;;-7.18;34.96
42887;BME280;29032;56.028;92.904;2023-03-23T02:57:32;100587.63;;;-7.08;35.13
42887;BME280;29032;56.028;92.904;2023-03-23T03:02:54;100581.50;;;-7.16;34.93
42887;BME280;29032;56.028;92.904;2023-03-23T03:08:06;100573.31;;;-7.12;35.18
42887;BME280;29032;56.028;92.904;2023-03-23T03:13:17;100570.78;;;-6.96;35.36
42887;BME280;29032;56.028;92.904;2023-03-23T03:18:27;100561.59;;;-6.75;35.22
42887;BME280;29032;56.028;92.904;2023-03-23T03:23:53;100558.25;;;-6.59;35.21
42887;BME280;29032;56.028;92.904;2023-03-23T03:28:56;100557.38;;;-6.49;35.09
42887;BME280;29032;56.028;92.904;2023-03-23T03:34:00;100554.06;;;-6.37;34.57
42887;BME280;29032;56.028;92.904;2023-03-23T03:39:08;100549.22;;;-6.25;34.92
42887;BME280;29032;56.028;92.904;2023-03-23T03:44:11;100556.06;;;-6.14;34.72
42887;BME280;29032;56.028;92.904;2023-03-23T03:49:33;100543.44;;;-6.04;34.43
42887;BME280;29032;56.028;92.904;2023-03-23T03:54:56;100540.13;;;-5.92;34.56
42887;BME280;29032;56.028;92.904;2023-03-23T03:59:58;100522.13;;;-5.86;34.54
42887;BME280;29032;56.028;92.904;2023-03-23T04:05:20;100515.72;;;-5.76;34.46
42887;BME280;29032;56.028;92.904;2023-03-23T04:10:25;100517.84;;;-5.63;34.58
42887;BME280;29032;56.028;92.904;2023-03-23T04:15:31;100507.63;;;-5.59;34.51
42887;BME280;29032;56.028;92.904;2023-03-23T04:20:33;100500.50;;;-5.53;34.68
42887;BME280;29032;56.028;92.904;2023-03-23T04:25:38;100471.84;;;-5.61;34.75
42887;BME280;29032;56.028;92.904;2023-03-23T04:30:41;100489.16;;;-5.32;34.72
42887;BME280;29032;56.028;92.904;2023-03-23T04:35:44;100487.34;;;-5.19;34.25
42887;BME280;29032;56.028;92.904;2023-03-23T04:41:07;100471.94;;;-5.09;34.15
42887;BME280;29032;56.028;92.904;2023-03-23T04:46:18;100466.69;;;-5.00;34.30
42887;BME280;29032;56.028;92.904;2023-03-23T04:51:22;100460.97;;;-4.89;33.83
42887;BME280;29032;56.028;92.904;2023-03-23T04:56:28;100456.06;;;-4.78;33.91
42887;BME280;29032;56.028;92.904;2023-03-23T05:01:33;100448.75;;;-4.65;32.72
42887;BME280;29032;56.028;92.904;2023-03-23T05:06:54;100439.19;;;-4.56;33.20
42887;BME280;29032;56.028;92.904;2023-03-23T05:12:08;100429.25;;;-4.34;33.59
42887;BME280;29032;56.028;92.904;2023-03-23T05:17:22;100420.38;;;-4.22;32.70
42887;BME280;29032;56.028;92.904;2023-03-23T05:22:26;100413.47;;;-3.97;31.60
42887;BME280;29032;56.028;92.904;2023-03-23T05:27:31;100400.97;;;-3.82;31.80
42887;BME280;29032;56.028;92.904;2023-03-23T05:32:52;100396.13;;;-3.49;32.12
42887;BME280;29032;56.028;92.904;2023-03-23T05:38:11;100385.34;;;-3.14;30.86
42887;BME280;29032;56.028;92.904;2023-03-23T05:43:15;100384.53;;;-2.64;30.89
42887;BME280;29032;56.028;92.904;2023-03-23T05:48:27;100379.66;;;-2.13;29.27
42887;BME280;29032;56.028;92.904;2023-03-23T05:53:29;100372.03;;;-1.74;28.40
42887;BME280;29032;56.028;92.904;2023-03-23T05:58:33;100362.63;;;-1.42;28.19
42887;BME280;29032;56.028;92.904;2023-03-23T06:03:54;100358.50;;;-1.06;27.80
42887;BME280;29032;56.028;92.904;2023-03-23T06:09:00;100346.03;;;-0.80;26.75
42887;BME280;29032;56.028;92.904;2023-03-23T06:14:25;100335.38;;;-0.59;27.10
42887;BME280;29032;56.028;92.904;2023-03-23T06:19:27;100317.41;;;-0.42;26.71
42887;BME280;29032;56.028;92.904;2023-03-23T06:24:37;100306.41;;;-0.33;25.73
42887;BME280;29032;56.028;92.904;2023-03-23T06:29:41;100308.53;;;-0.18;26.33
42887;BME280;29032;56.028;92.904;2023-03-23T06:34:44;100299.97;;;0.07;25.50
42887;BME280;29032;56.028;92.904;2023-03-23T06:40:07;100283.78;;;-0.00;26.14
42887;BME280;29032;56.028;92.904;2023-03-23T06:45:23;100280.81;;;0.22;26.59
42887;BME280;29032;56.028;92.904;2023-03-23T06:50:32;100278.56;;;0.53;25.64
42887;BME280;29032;56.028;92.904;2023-03-23T06:55:36;100263.75;;;0.84;26.13
42887;BME280;29032;56.028;92.904;2023-03-23T07:00:41;100252.34;;;1.15;23.83
42887;BME280;29032;56.028;92.904;2023-03-23T07:05:46;100254.19;;;0.94;24.38
42887;BME280;29032;56.028;92.904;2023-03-23T07:10:51;100244.16;;;1.06;23.87
42887;BME280;29032;56.028;92.904;2023-03-23T07:15:55;100232.94;;;1.33;23.36
42887;BME280;29032;56.028;92.904;2023-03-23T07:20:58;100226.88;;;1.59;22.95
42887;BME280;29032;56.028;92.904;2023-03-23T07:26:20;100215.19;;;1.64;22.69
42887;BME280;29032;56.028;92.904;2023-03-23T07:31:29;100203.78;;;1.71;22.57
42887;BME280;29032;56.028;92.904;2023-03-23T07:36:50;100198.44;;;1.67;25.00
42887;BME280;29032;56.028;92.904;2023-03-23T07:41:53;100192.25;;;1.87;25.40
42887;BME280;29032;56.028;92.904;2023-03-23T07:47:16;100192.22;;;2.17;25.50
42887;BME280;29032;56.028;92.904;2023-03-23T07:52:19;100182.50;;;2.21;22.17
42887;BME280;29032;56.028;92.904;2023-03-23T07:57:41;100173.81;;;1.93;22.91
42887;BME280;29032;56.028;92.904;2023-03-23T08:03:05;100168.63;;;2.16;24.05
42887;BME280;29032;56.028;92.904;2023-03-23T08:08:30;100157.66;;;2.36;23.85
42887;BME280;29032;56.028;92.904;2023-03-23T08:13:52;100143.59;;;2.55;24.14
42887;BME280;29032;56.028;92.904;2023-03-23T08:19:20;100146.06;;;2.52;22.00
42887;BME280;29032;56.028;92.904;2023-03-23T08:24:38;100139.66;;;2.41;23.46
42887;BME280;29032;56.028;92.904;2023-03-23T08:30:10;100122.38;;;2.66;22.95
42887;BME280;29032;56.028;92.904;2023-03-23T08:35:33;100120.31;;;2.82;21.23
42887;BME280;29032;56.028;92.904;2023-03-23T08:40:57;100118.44;;;2.52;23.68
42887;BME280;29032;56.028;92.904;2023-03-23T08:46:27;100107.53;;;2.64;23.48
42887;BME280;29032;56.028;92.904;2023-03-23T08:51:47;100106.44;;;3.02;21.98
42887;BME280;29032;56.028;92.904;2023-03-23T08:57:08;100094.88;;;3.24;23.78
42887;BME280;29032;56.028;92.904;2023-03-23T09:02:29;100083.75;;;3.18;21.24
42887;BME280;29032;56.028;92.904;2023-03-23T09:07:51;100083.44;;;3.11;20.87
42887;BME280;29032;56.028;92.904;2023-03-23T09:12:54;100075.09;;;3.05;21.96
42887;BME280;29032;56.028;92.904;2023-03-23T09:18:16;100063.66;;;3.49;21.25
42887;BME280;29032;56.028;92.904;2023-03-23T09:23:20;100076.34;;;4.47;21.07
42887;BME280;29032;56.028;92.904;2023-03-23T09:28:23;100057.88;;;5.99;20.29
42887;BME280;29032;56.028;92.904;2023-03-23T09:33:25;100061.56;;;8.32;17.90
42887;BME280;29032;56.028;92.904;2023-03-23T09:38:29;100057.19;;;9.76;17.79
42887;BME280;29032;56.028;92.904;2023-03-23T09:43:46;100042.25;;;7.91;18.81
42887;BME280;29032;56.028;92.904;2023-03-23T09:49:12;100040.19;;;5.91;19.72
42887;BME280;29032;56.028;92.904;2023-03-23T09:54:38;100033.59;;;4.70;18.65
42887;BME280;29032;56.028;92.904;2023-03-23T09:59:47;100023.69;;;3.93;21.27
42887;BME280;29032;56.028;92.904;2023-03-23T10:04:55;100015.31;;;3.39;21.42
42887;BME280;29032;56.028;92.904;2023-03-23T10:10:00;100010.06;;;3.10;22.08
42887;BME280;29032;56.028;92.904;2023-03-23T10:15:15;99996.94;;;3.04;21.97
42887;BME280;29032;56.028;92.904;2023-03-23T10:20:43;99995.31;;;2.92;21.32
42887;BME280;29032;56.028;92.904;2023-03-23T10:25:50;99987.41;;;2.79;20.61
42887;BME280;29032;56.028;92.904;2023-03-23T10:30:55;99981.91;;;2.53;22.01
42887;BME280;29032;56.028;92.904;2023-03-23T10:36:21;99970.72;;;2.42;21.72
42887;BME280;29032;56.028;92.904;2023-03-23T10:41:44;99969.28;;;2.26;21.48
42887;BME280;29032;56.028;92.904;2023-03-23T10:47:07;99965.13;;;2.16;20.74
42887;BME280;29032;56.028;92.904;2023-03-23T10:52:32;99953.31;;;2.16;21.61
42887;BME280;29032;56.028;92.904;2023-03-23T10:58:04;99954.97;;;2.28;21.76
42887;BME280;29032;56.028;92.904;2023-03-23T11:03:24;99946.97;;;2.30;23.54
42887;BME280;29032;56.028;92.904;2023-03-23T11:08:27;99944.63;;;2.03;25.34
42887;BME280;29032;56.028;92.904;2023-03-23T11:13:32;99935.19;;;1.89;24.47
42887;BME280;29032;56.028;92.904;2023-03-23T11:18:37;99941.81;;;1.56;25.74
42887;BME280;29032;56.028;92.904;2023-03-23T11:23:41;99947.47;;;1.47;25.90
42887;BME280;29032;56.028;92.904;2023-03-23T11:28:51;99943.50;;;1.54;26.15
42887;BME280;29032;56.028;92.904;2023-03-23T11:34:30;99943.41;;;1.28;27.62
42887;BME280;29032;56.028;92.904;2023-03-23T11:39:35;99934.69;;;1.14;27.05
42887;BME280;29032;56.028;92.904;2023-03-23T11:56:31;99924.28;;;0.89;28.06
42887;BME280;29032;56.028;92.904;2023-03-23T12:01:51;99928.28;;;0.73;27.36
42887;BME280;29032;56.028;92.904;2023-03-23T12:07:26;99923.03;;;0.46;28.47
42887;BME280;29032;56.028;92.904;2023-03-23T12:12:38;99917.06;;;0.32;27.91
42887;BME280;29032;56.028;92.904;2023-03-23T12:17:48;99914.09;;;0.21;29.26
42887;BME280;29032;56.028;92.904;2023-03-23T12:23:22;99913.25;;;0.15;28.93
42887;BME280;29032;56.028;92.904;2023-03-23T12:29:08;99913.78;;;0.04;29.23
42887;BME280;29032;56.028;92.904;2023-03-23T12:34:20;99908.00;;;-0.22;30.31
42887;BME280;29032;56.028;92.904;2023-03-23T12:39:48;99900.31;;;-0.17;29.46
42887;BME280;29032;56.028;92.904;2023-03-23T12:45:20;99903.03;;;-0.32;28.79
42887;BME280;29032;56.028;92.904;2023-03-23T12:50:47;99898.19;;;-0.61;29.89
42887;BME280;29032;56.028;92.904;2023-03-23T12:56:13;99899.00;;;-0.46;30.64
42887;BME280;29032;56.028;92.904;2023-03-23T13:12:59;99891.38;;;-0.51;30.67
42887;BME280;29032;56.028;92.904;2023-03-23T13:18:08;99896.88;;;-0.51;30.12
42887;BME280;29032;56.028;92.904;2023-03-23T13:23:15;99896.25;;;-0.46;31.14
42887;BME280;29032;56.028;92.904;2023-03-23T13:28:22;99885.66;;;-0.38;30.35
42887;BME280;29032;56.028;92.904;2023-03-23T13:33:25;99875.78;;;-0.45;29.99
42887;BME280;29032;56.028;92.904;2023-03-23T13:38:49;99878.81;;;-0.67;29.98
42887;BME280;29032;56.028;92.904;2023-03-23T13:44:05;99867.59;;;-0.78;30.71
42887;BME280;29032;56.028;92.904;2023-03-23T13:49:19;99877.47;;;-0.71;30.18
42887;BME280;29032;56.028;92.904;2023-03-23T13:54:29;99873.84;;;-0.78;30.08
42887;BME280;29032;56.028;92.904;2023-03-23T13:59:45;99863.38;;;-0.88;29.68
42887;BME280;29032;56.028;92.904;2023-03-23T14:05:26;99863.22;;;-0.85;31.26
42887;BME280;29032;56.028;92.904;2023-03-23T14:10:34;99843.78;;;-1.05;30.22
42887;BME280;29032;56.028;92.904;2023-03-23T14:16:02;99853.81;;;-1.02;30.96
42887;BME280;29032;56.028;92.904;2023-03-23T14:21:32;99846.34;;;-1.01;30.78
42887;BME280;29032;56.028;92.904;2023-03-23T14:26:35;99849.91;;;-1.10;31.81
42887;BME280;29032;56.028;92.904;2023-03-23T14:31:58;99834.38;;;-1.22;31.24
42887;BME280;29032;56.028;92.904;2023-03-23T14:37:20;99834.16;;;-1.34;30.82
42887;BME280;29032;56.028;92.904;2023-03-23T14:42:27;99821.66;;;-1.44;31.19
42887;BME280;29032;56.028;92.904;2023-03-23T14:47:52;99813.94;;;-1.54;32.98
42887;BME280;29032;56.028;92.904;2023-03-23T14:53:18;99806.50;;;-1.63;30.88
42887;BME280;29032;56.028;92.904;2023-03-23T14:58:23;99808.34;;;-1.69;30.88
42887;BME280;29032;56.028;92.904;2023-03-23T15:03:30;99806.81;;;-1.70;30.84
42887;BME280;29032;56.028;92.904;2023-03-23T15:08:35;99798.63;;;-1.79;31.15
42887;BME280;29032;56.028;92.904;2023-03-23T15:13:58;99791.94;;;-1.88;30.54
42887;BME280;29032;56.028;92.904;2023-03-23T15:19:23;99780.09;;;-2.03;30.59
42887;BME280;29032;56.028;92.904;2023-03-23T15:24:31;99775.81;;;-2.13;31.32
42887;BME280;29032;56.028;92.904;2023-03-23T15:29:53;99764.44;;;-2.30;32.42
42887;BME280;29032;56.028;92.904;2023-03-23T15:35:03;99753.03;;;-2.37;32.04
42887;BME280;29032;56.028;92.904;2023-03-23T15:40:26;99753.66;;;-2.52;33.12
42887;BME280;29032;56.028;92.904;2023-03-23T15:45:29;99752.44;;;-2.69;32.06
42887;BME280;29032;56.028;92.904;2023-03-23T15:50:52;99727.94;;;-2.73;32.72
42887;BME280;29032;56.028;92.904;2023-03-23T15:56:15;99722.63;;;-2.67;32.46
42887;BME280;29032;56.028;92.904;2023-03-23T16:01:18;99730.06;;;-2.49;32.77
42887;BME280;29032;56.028;92.904;2023-03-23T16:06:42;99717.59;;;-2.59;32.86
42887;BME280;29032;56.028;92.904;2023-03-23T16:12:03;99717.91;;;-2.66;32.95
42887;BME280;29032;56.028;92.904;2023-03-23T16:17:05;99714.56;;;-2.71;33.05
42887;BME280;29032;56.028;92.904;2023-03-23T16:22:09;99718.97;;;-2.64;32.82
42887;BME280;29032;56.028;92.904;2023-03-23T16:27:12;99715.16;;;-2.66;32.48
42887;BME280;29032;56.028;92.904;2023-03-23T16:32:33;99701.94;;;-2.77;31.98
42887;BME280;29032;56.028;92.904;2023-03-23T16:37:37;99699.06;;;-2.83;32.24
42887;BME280;29032;56.028;92.904;2023-03-23T16:42:59;99699.66;;;-2.88;32.82
42887;BME280;29032;56.028;92.904;2023-03-23T16:48:01;99698.75;;;-2.85;33.47
42887;BME280;29032;56.028;92.904;2023-03-23T16:53:05;99687.50;;;-2.87;33.17
42887;BME280;29032;56.028;92.904;2023-03-23T16:58:08;99693.28;;;-2.94;35.81
42887;BME280;29032;56.028;92.904;2023-03-23T17:03:10;99693.56;;;-2.92;34.55
42887;BME280;29032;56.028;92.904;2023-03-23T17:08:34;99671.19;;;-2.90;34.61
42887;BME280;29032;56.028;92.904;2023-03-23T17:13:55;99675.47;;;-2.99;35.45
42887;BME280;29032;56.028;92.904;2023-03-23T17:18:57;99675.19;;;-3.10;35.17
42887;BME280;29032;56.028;92.904;2023-03-23T17:24:20;99665.75;;;-3.00;34.07
42887;BME280;29032;56.028;92.904;2023-03-23T17:29:23;99674.13;;;-3.03;35.82
42887;BME280;29032;56.028;92.904;2023-03-23T17:34:25;99668.34;;;-2.96;33.75
42887;BME280;29032;56.028;92.904;2023-03-23T17:39:48;99651.13;;;-2.78;32.93
42887;BME280;29032;56.028;92.904;2023-03-23T17:44:52;99655.38;;;-2.68;34.20
42887;BME280;29032;56.028;92.904;2023-03-23T17:50:13;99652.50;;;-2.74;33.54
42887;BME280;29032;56.028;92.904;2023-03-23T17:55:17;99658.44;;;-3.03;35.31
42887;BME280;29032;56.028;92.904;2023-03-23T18:00:23;99650.09;;;-3.17;34.84
42887;BME280;29032;56.028;92.904;2023-03-23T18:05:26;99648.53;;;-3.28;35.05
42887;BME280;29032;56.028;92.904;2023-03-23T18:10:49;99655.06;;;-3.34;35.18
42887;BME280;29032;56.028;92.904;2023-03-23T18:16:10;99645.19;;;-3.41;35.40
42887;BME280;29032;56.028;92.904;2023-03-23T18:21:13;99639.53;;;-3.56;35.08
42887;BME280;29032;56.028;92.904;2023-03-23T18:26:25;99642.25;;;-3.65;35.62
42887;BME280;29032;56.028;92.904;2023-03-23T18:31:28;99630.28;;;-3.67;34.75
42887;BME280;29032;56.028;92.904;2023-03-23T18:36:30;99624.06;;;-3.59;35.15
42887;BME280;29032;56.028;92.904;2023-03-23T18:41:34;99616.91;;;-3.47;34.09
42887;BME280;29032;56.028;92.904;2023-03-23T18:46:36;99617.66;;;-3.56;35.17
42887;BME280;29032;56.028;92.904;2023-03-23T18:51:38;99620.84;;;-3.66;36.19
42887;BME280;29032;56.028;92.904;2023-03-23T18:56:42;99613.41;;;-3.66;35.31
42887;BME280;29032;56.028;92.904;2023-03-23T19:02:04;99602.47;;;-3.66;35.34
42887;BME280;29032;56.028;92.904;2023-03-23T19:07:06;99604.69;;;-3.83;35.26
42887;BME280;29032;56.028;92.904;2023-03-23T19:12:10;99607.88;;;-3.84;35.77
42887;BME280;29032;56.028;92.904;2023-03-23T19:17:13;99598.81;;;-3.81;36.27
42887;BME280;29032;56.028;92.904;2023-03-23T19:22:35;99595.31;;;-3.72;35.82
42887;BME280;29032;56.028;92.904;2023-03-23T19:27:38;99588.94;;;-3.69;36.12
42887;BME280;29032;56.028;92.904;2023-03-23T19:33:00;99578.69;;;-3.96;35.43
42887;BME280;29032;56.028;92.904;2023-03-23T19:38:02;99580.47;;;-4.12;36.01
42887;BME280;29032;56.028;92.904;2023-03-23T19:43:05;99577.09;;;-4.25;36.04
42887;BME280;29032;56.028;92.904;2023-03-23T19:48:27;99572.91;;;-4.48;35.98
42887;BME280;29032;56.028;92.904;2023-03-23T19:53:48;99561.97;;;-4.57;36.64
42887;BME280;29032;56.028;92.904;2023-03-23T19:58:52;99562.00;;;-4.48;37.39
42887;BME280;29032;56.028;92.904;2023-03-23T20:04:14;99557.44;;;-4.51;36.35
42887;BME280;29032;56.028;92.904;2023-03-23T20:09:35;99542.22;;;-4.61;36.42
42887;BME280;29032;56.028;92.904;2023-03-23T20:14:58;99549.94;;;-4.59;37.04
42887;BME280;29032;56.028;92.904;2023-03-23T20:20:01;99554.81;;;-4.64;37.80
42887;BME280;29032;56.028;92.904;2023-03-23T20:25:03;99547.06;;;-4.65;37.90
42887;BME280;29032;56.028;92.904;2023-03-23T20:30:26;99540.09;;;-4.66;37.65
42887;BME280;29032;56.028;92.904;2023-03-23T20:35:47;99539.94;;;-4.63;37.23
42887;BME280;29032;56.028;92.904;2023-03-23T20:40:50;99542.09;;;-4.57;37.92
42887;BME280;29032;56.028;92.904;2023-03-23T20:46:12;99534.03;;;-4.61;37.75
42887;BME280;29032;56.028;92.904;2023-03-23T20:51:16;99541.34;;;-4.58;37.24
42887;BME280;29032;56.028;92.904;2023-03-23T20:56:18;99539.94;;;-4.63;36.93
42887;BME280;29032;56.028;92.904;2023-03-23T21:01:41;99535.31;;;-4.44;36.14
42887;BME280;29032;56.028;92.904;2023-03-23T21:06:44;99542.22;;;-4.21;36.70
42887;BME280;29032;56.028;92.904;2023-03-23T21:12:06;99540.44;;;-3.96;35.73
42887;BME280;29032;56.028;92.904;2023-03-23T21:17:11;99544.44;;;-3.79;35.32
42887;BME280;29032;56.028;92.904;2023-03-23T21:22:32;99547.78;;;-3.66;35.25
42887;BME280;29032;56.028;92.904;2023-03-23T21:27:54;99529.69;;;-3.63;34.88
42887;BME280;29032;56.028;92.904;2023-03-23T21:33:18;99539.59;;;-3.57;34.93
42887;BME280;29032;56.028;92.904;2023-03-23T21:38:39;99538.97;;;-3.61;35.13
42887;BME280;29032;56.028;92.904;2023-03-23T21:44:01;99536.56;;;-3.59;35.37
42887;BME280;29032;56.028;92.904;2023-03-23T21:49:24;99545.66;;;-3.53;35.40
42887;BME280;29032;56.028;92.904;2023-03-23T21:54:26;99551.13;;;-3.53;35.69
42887;BME280;29032;56.028;92.904;2023-03-23T21:59:47;99557.19;;;-3.48;35.45
42887;BME280;29032;56.028;92.904;2023-03-23T22:05:11;99554.91;;;-3.41;34.79
42887;BME280;29032;56.028;92.904;2023-03-23T22:10:13;99556.75;;;-3.38;35.11
42887;BME280;29032;56.028;92.904;2023-03-23T22:15:34;99566.31;;;-3.33;35.45
42887;BME280;29032;56.028;92.904;2023-03-23T22:20:39;99557.81;;;-3.35;35.32
42887;BME280;29032;56.028;92.904;2023-03-23T22:26:01;99562.84;;;-3.43;34.65
42887;BME280;29032;56.028;92.904;2023-03-23T22:31:06;99559.63;;;-3.50;34.41
42887;BME280;29032;56.028;92.904;2023-03-23T22:36:30;99565.72;;;-3.65;35.12
42887;BME280;29032;56.028;92.904;2023-03-23T22:41:34;99567.38;;;-3.67;34.97
42887;BME280;29032;56.028;92.904;2023-03-23T22:46:56;99566.94;;;-3.66;34.84
42887;BME280;29032;56.028;92.904;2023-03-23T22:52:00;99561.00;;;-3.64;34.48
42887;BME280;29032;56.028;92.904;2023-03-23T22:57:03;99571.59;;;-3.75;34.52
42887;BME280;29032;56.028;92.904;2023-03-23T23:02:05;99562.94;;;-3.83;34.66
42887;BME280;29032;56.028;92.904;2023-03-23T23:07:09;99557.16;;;-3.94;34.91
42887;BME280;29032;56.028;92.904;2023-03-23T23:12:12;99564.16;;;-3.93;34.74
42887;BME280;29032;56.028;92.904;2023-03-23T23:17:34;99566.59;;;-3.95;34.55
42887;BME280;29032;56.028;92.904;2023-03-23T23:22:57;99565.03;;;-4.05;35.01
42887;BME280;29032;56.028;92.904;2023-03-23T23:28:19;99567.38;;;-4.26;34.90
42887;BME280;29032;56.028;92.904;2023-03-23T23:33:40;99579.50;;;-4.36;35.08
42887;BME280;29032;56.028;92.904;2023-03-23T23:39:04;99579.22;;;-4.29;35.28
42887;BME280;29032;56.028;92.904;2023-03-23T23:44:06;99581.63;;;-4.31;34.72
42887;BME280;29032;56.028;92.904;2023-03-23T23:49:27;99576.94;;;-4.30;35.30
42887;BME280;29032;56.028;92.904;2023-03-23T23:55:10;99585.50;;;-4.10;34.95
